Time,TemperatureF,DewpointF,PressureIn,WindDirection,WindDirectionDegrees,WindSpeedMPH,WindSpeedGustMPH,Humidity,HourlyPrecipIn,Conditions,Clouds,dailyrainin,SoftwareType,DateUTC
2013-02-24 00:00:00,70.0,65.9,29.88,East,90,4.9,4.9,87,0.00,,---,0.00,VWS V14.00,2013-02-24 05:00:00,
2013-02-24 00:05:00,70.0,65.9,29.88,SE,135,2.7,4.0,87,0.00,,---,0.00,VWS V14.00,2013-02-24 05:05:00,
2013-02-24 00:06:00,70.0,65.9,29.88,SSE,158,2.7,2.7,87,0.00,,---,0.00,VWS V14.00,2013-02-24 05:06:00,
2013-02-24 00:11:00,70.0,65.9,29.88,SE,135,3.1,4.7,87,0.00,,---,0.00,VWS V14.00,2013-02-24 05:11:00,
2013-02-24 00:14:00,70.0,65.9,29.88,SE,135,5.4,5.4,87,0.00,,---,0.00,VWS V14.00,2013-02-24 05:14:00,
2013-02-24 00:19:00,70.0,65.9,29.88,SE,135,1.6,5.8,87,0.00,,---,0.00,VWS V14.00,2013-02-24 05:19:00,
2013-02-24 00:24:00,70.0,65.9,29.88,SSE,158,1.3,2.9,87,0.00,,---,0.00,VWS V14.00,2013-02-24 05:24:00,
2013-02-24 00:29:00,70.0,65.9,29.88,South,180,3.6,3.6,87,0.00,,---,0.00,VWS V14.00,2013-02-24 05:29:00,
2013-02-24 00:34:00,70.0,65.9,29.88,South,180,2.5,3.1,87,0.00,,---,0.00,VWS V14.00,2013-02-24 05:34:00,
2013-02-24 00:39:00,70.0,65.9,29.88,SSE,158,1.6,4.9,87,0.00,,---,0.00,VWS V14.00,2013-02-24 05:39:00,
2013-02-24 00:44:00,70.0,65.9,29.88,SSE,158,3.4,4.0,87,0.00,,---,0.00,VWS V14.00,2013-02-24 05:44:00,
2013-02-24 00:49:00,70.0,65.9,29.88,South,180,4.0,4.0,87,0.00,,---,0.00,VWS V14.00,2013-02-24 05:49:00,
2013-02-24 00:54:00,70.0,66.3,29.88,SSW,202,3.1,3.6,88,0.00,,---,0.00,VWS V14.00,2013-02-24 05:54:00,
2013-02-24 01:00:00,70.0,66.3,29.88,South,180,2.5,4.5,88,0.00,,---,0.00,VWS V14.00,2013-02-24 06:00:00,
2013-02-24 01:05:00,70.0,65.9,29.88,ESE,112,2.0,2.0,87,0.00,,---,0.00,VWS V14.00,2013-02-24 06:05:00,
2013-02-24 01:11:00,70.0,65.9,29.88,ESE,112,2.9,2.9,87,0.00,,---,0.00,VWS V14.00,2013-02-24 06:11:00,
2013-02-24 01:16:00,70.0,65.9,29.88,South,180,2.9,2.9,87,0.00,,---,0.00,VWS V14.00,2013-02-24 06:16:00,
2013-02-24 01:21:00,70.0,65.9,29.88,SSE,158,2.5,5.6,87,0.00,,---,0.00,VWS V14.00,2013-02-24 06:21:00,
2013-02-24 01:26:00,70.0,65.9,29.88,SSE,158,3.1,3.1,87,0.00,,---,0.00,VWS V14.00,2013-02-24 06:26:00,
2013-02-24 01:31:00,70.0,65.9,29.88,SE,135,3.8,4.7,87,0.00,,---,0.00,VWS V14.00,2013-02-24 06:31:00,
2013-02-24 01:36:00,70.0,65.9,29.88,SSE,158,2.7,5.4,87,0.00,,---,0.00,VWS V14.00,2013-02-24 06:36:00,
2013-02-24 01:42:00,70.0,65.9,29.88,ESE,112,2.7,3.4,87,0.00,,---,0.00,VWS V14.00,2013-02-24 06:42:00,
2013-02-24 01:47:00,70.0,66.3,29.88,SSE,158,2.9,4.3,88,0.00,,---,0.00,VWS V14.00,2013-02-24 06:47:00,
2013-02-24 01:52:00,70.0,66.3,29.88,SSW,202,3.8,4.9,88,0.00,,---,0.00,VWS V14.00,2013-02-24 06:52:00,
2013-02-24 01:57:00,70.0,66.3,29.85,SE,135,6.5,6.5,88,0.00,,---,0.00,VWS V14.00,2013-02-24 06:57:00,
2013-02-24 02:02:00,70.0,66.3,29.85,SE,135,5.6,5.6,88,0.00,,---,0.00,VWS V14.00,2013-02-24 07:02:00,
2013-02-24 02:07:00,70.0,66.3,29.85,South,180,4.9,4.9,88,0.00,,---,0.00,VWS V14.00,2013-02-24 07:07:00,
2013-02-24 02:13:00,69.8,66.1,29.85,SSE,158,5.4,5.4,88,0.00,,---,0.00,VWS V14.00,2013-02-24 07:13:00,
2013-02-24 02:18:00,69.8,66.1,29.85,SSW,202,3.8,5.8,88,0.00,,---,0.00,VWS V14.00,2013-02-24 07:18:00,
2013-02-24 02:23:00,69.8,66.1,29.85,ESE,112,4.0,4.0,88,0.00,,---,0.00,VWS V14.00,2013-02-24 07:23:00,
2013-02-24 02:28:00,69.8,66.1,29.85,SSW,202,5.6,5.6,88,0.00,,---,0.00,VWS V14.00,2013-02-24 07:28:00,
2013-02-24 02:33:00,69.6,66.2,29.85,South,180,2.9,3.8,89,0.00,,---,0.00,VWS V14.00,2013-02-24 07:33:00,
2013-02-24 02:38:00,69.6,66.2,29.85,South,180,3.8,3.8,89,0.00,,---,0.00,VWS V14.00,2013-02-24 07:38:00,
2013-02-24 02:43:00,69.6,66.2,29.85,South,180,4.0,4.7,89,0.00,,---,0.00,VWS V14.00,2013-02-24 07:43:00,
2013-02-24 02:48:00,69.4,66.1,29.85,SE,135,3.6,3.6,89,0.00,,---,0.00,VWS V14.00,2013-02-24 07:48:00,
2013-02-24 02:53:00,69.4,66.1,29.85,SSE,158,5.6,5.6,89,0.00,,---,0.00,VWS V14.00,2013-02-24 07:53:00,
2013-02-24 02:58:00,69.4,66.1,29.85,ESE,112,3.1,4.0,89,0.00,,---,0.00,VWS V14.00,2013-02-24 07:58:00,
2013-02-24 03:03:00,69.4,66.1,29.85,South,180,4.3,4.3,89,0.00,,---,0.00,VWS V14.00,2013-02-24 08:03:00,
2013-02-24 03:09:00,69.6,66.2,29.85,SSE,158,4.3,4.3,89,0.00,,---,0.00,VWS V14.00,2013-02-24 08:09:00,
2013-02-24 03:15:00,69.6,66.2,29.82,South,180,5.4,7.6,89,0.00,,---,0.00,VWS V14.00,2013-02-24 08:15:00,
2013-02-24 03:20:00,69.6,66.2,29.82,SSE,158,4.3,4.3,89,0.00,,---,0.00,VWS V14.00,2013-02-24 08:20:00,
2013-02-24 03:26:00,69.4,66.1,29.82,ESE,112,2.9,3.8,89,0.00,,---,0.00,VWS V14.00,2013-02-24 08:26:00,
2013-02-24 03:31:00,69.4,66.1,29.82,SSE,158,8.5,8.5,89,0.00,,---,0.00,VWS V14.00,2013-02-24 08:31:00,
2013-02-24 03:36:00,69.4,66.1,29.82,SSE,158,6.5,6.5,89,0.00,,---,0.00,VWS V14.00,2013-02-24 08:36:00,
2013-02-24 03:41:00,69.4,66.1,29.82,SE,135,5.4,7.2,89,0.00,,---,0.00,VWS V14.00,2013-02-24 08:41:00,
2013-02-24 03:46:00,69.4,66.1,29.82,SSE,158,5.4,5.4,89,0.00,,---,0.00,VWS V14.00,2013-02-24 08:46:00,
2013-02-24 03:51:00,69.4,66.1,29.82,South,180,3.8,4.0,89,0.00,,---,0.00,VWS V14.00,2013-02-24 08:51:00,
2013-02-24 03:56:00,69.3,65.9,29.82,SE,135,3.8,6.5,89,0.00,,---,0.00,VWS V14.00,2013-02-24 08:56:00,
2013-02-24 04:02:00,69.3,65.9,29.82,SE,135,5.6,5.6,89,0.00,,---,0.00,VWS V14.00,2013-02-24 09:02:00,
2013-02-24 04:08:00,69.4,66.1,29.82,South,180,5.4,5.4,89,0.00,,---,0.00,VWS V14.00,2013-02-24 09:08:00,
2013-02-24 04:13:00,69.3,65.9,29.82,SSE,158,4.9,6.5,89,0.00,,---,0.00,VWS V14.00,2013-02-24 09:13:00,
2013-02-24 04:19:00,69.3,65.9,29.82,South,180,4.9,4.9,89,0.00,,---,0.00,VWS V14.00,2013-02-24 09:19:00,
2013-02-24 04:24:00,69.3,65.9,29.82,South,180,2.5,4.9,89,0.00,,---,0.00,VWS V14.00,2013-02-24 09:24:00,
2013-02-24 04:29:00,69.3,65.9,29.82,SSE,158,4.3,4.3,89,0.00,,---,0.00,VWS V14.00,2013-02-24 09:29:00,
2013-02-24 04:34:00,69.3,65.9,29.82,South,180,0.0,0.9,89,0.00,,---,0.00,VWS V14.00,2013-02-24 09:34:00,
2013-02-24 04:39:00,69.4,66.1,29.82,ESE,112,0.0,0.0,89,0.00,,---,0.00,VWS V14.00,2013-02-24 09:39:00,
2013-02-24 04:44:00,69.4,66.1,29.85,SW,225,0.0,0.0,89,0.00,,---,0.00,VWS V14.00,2013-02-24 09:44:00,
2013-02-24 04:49:00,69.4,66.1,29.85,SSE,158,0.9,0.9,89,0.00,,---,0.00,VWS V14.00,2013-02-24 09:49:00,
2013-02-24 04:54:00,69.4,66.1,29.85,SSE,158,2.9,2.9,89,0.00,,---,0.00,VWS V14.00,2013-02-24 09:54:00,
2013-02-24 04:59:00,69.4,66.1,29.85,South,180,0.9,2.0,89,0.00,,---,0.00,VWS V14.00,2013-02-24 09:59:00,
2013-02-24 05:05:00,69.4,66.1,29.85,South,180,2.7,2.7,89,0.00,,---,0.00,VWS V14.00,2013-02-24 10:05:00,
2013-02-24 05:10:00,69.4,66.1,29.85,SSW,202,2.2,2.2,89,0.00,,---,0.00,VWS V14.00,2013-02-24 10:10:00,
2013-02-24 05:15:00,69.4,66.1,29.85,SW,225,2.0,2.0,89,0.00,,---,0.00,VWS V14.00,2013-02-24 10:15:00,
2013-02-24 05:20:00,69.6,66.2,29.85,South,180,1.3,1.3,89,0.00,,---,0.00,VWS V14.00,2013-02-24 10:20:00,
2013-02-24 05:26:00,69.4,66.1,29.85,South,180,2.9,2.9,89,0.00,,---,0.00,VWS V14.00,2013-02-24 10:26:00,
2013-02-24 05:31:00,69.4,66.1,29.85,South,180,3.1,3.1,89,0.00,,---,0.00,VWS V14.00,2013-02-24 10:31:00,
2013-02-24 05:36:00,69.6,66.2,29.85,SSW,202,2.5,2.5,89,0.00,,---,0.00,VWS V14.00,2013-02-24 10:36:00,
2013-02-24 05:41:00,69.4,65.7,29.85,SSW,202,0.0,2.0,88,0.00,,---,0.00,VWS V14.00,2013-02-24 10:41:00,
2013-02-24 05:47:00,69.4,65.7,29.85,SSW,202,1.1,2.0,88,0.00,,---,0.00,VWS V14.00,2013-02-24 10:47:00,
2013-02-24 05:52:00,69.4,65.7,29.85,SSW,202,3.1,3.1,88,0.00,,---,0.00,VWS V14.00,2013-02-24 10:52:00,
2013-02-24 05:57:00,69.4,65.7,29.85,SSW,202,1.1,2.5,88,0.00,,---,0.00,VWS V14.00,2013-02-24 10:57:00,
2013-02-24 06:02:00,69.4,65.7,29.85,SSW,202,2.5,3.4,88,0.00,,---,0.00,VWS V14.00,2013-02-24 11:02:00,
2013-02-24 06:08:00,69.4,65.7,29.85,SSE,158,2.0,2.2,88,0.00,,---,0.00,VWS V14.00,2013-02-24 11:08:00,
2013-02-24 06:13:00,69.4,65.7,29.85,South,180,2.7,2.7,88,0.00,,---,0.00,VWS V14.00,2013-02-24 11:13:00,
2013-02-24 06:18:00,69.4,66.1,29.85,South,180,3.6,3.6,89,0.00,,---,0.00,VWS V14.00,2013-02-24 11:18:00,
2013-02-24 06:23:00,69.4,66.1,29.85,SSW,202,1.1,2.0,89,0.00,,---,0.00,VWS V14.00,2013-02-24 11:23:00,
2013-02-24 06:29:00,69.4,66.1,29.85,SSW,202,3.8,3.8,89,0.00,,---,0.00,VWS V14.00,2013-02-24 11:29:00,
2013-02-24 06:34:00,69.4,66.1,29.85,SSE,158,1.6,3.1,89,0.00,,---,0.00,VWS V14.00,2013-02-24 11:34:00,
2013-02-24 06:39:00,69.4,66.1,29.85,South,180,2.7,3.8,89,0.00,,---,0.00,VWS V14.00,2013-02-24 11:39:00,
2013-02-24 06:44:00,69.4,66.1,29.88,South,180,2.2,3.1,89,0.00,,---,0.00,VWS V14.00,2013-02-24 11:44:00,
2013-02-24 06:49:00,69.4,66.1,29.88,SSE,158,2.0,3.6,89,0.00,,---,0.00,VWS V14.00,2013-02-24 11:49:00,
2013-02-24 06:54:00,69.4,66.1,29.88,South,180,1.1,3.4,89,0.00,,---,0.00,VWS V14.00,2013-02-24 11:54:00,
2013-02-24 06:59:00,69.4,66.1,29.88,SSW,202,2.5,2.5,89,0.00,,---,0.00,VWS V14.00,2013-02-24 11:59:00,
2013-02-24 07:04:00,69.4,66.1,29.88,SE,135,3.1,3.1,89,0.00,,---,0.00,VWS V14.00,2013-02-24 12:04:00,
2013-02-24 07:09:00,69.4,66.1,29.88,ENE,68,1.6,1.6,89,0.00,,---,0.00,VWS V14.00,2013-02-24 12:09:00,
2013-02-24 07:14:00,69.4,66.1,29.88,SSE,158,4.9,4.9,89,0.00,,---,0.00,VWS V14.00,2013-02-24 12:14:00,
2013-02-24 07:19:00,69.4,66.1,29.88,South,180,3.8,4.9,89,0.00,,---,0.00,VWS V14.00,2013-02-24 12:19:00,
2013-02-24 07:24:00,69.4,66.1,29.88,SSW,202,6.3,6.3,89,0.00,,---,0.00,VWS V14.00,2013-02-24 12:24:00,
2013-02-24 07:29:00,69.4,66.1,29.88,SSE,158,4.9,4.9,89,0.00,,---,0.00,VWS V14.00,2013-02-24 12:29:00,
2013-02-24 07:34:00,69.3,65.9,29.88,South,180,4.0,4.0,89,0.00,,---,0.00,VWS V14.00,2013-02-24 12:34:00,
2013-02-24 07:40:00,69.4,66.1,29.88,ESE,112,3.8,3.8,89,0.00,,---,0.00,VWS V14.00,2013-02-24 12:40:00,
2013-02-24 07:45:00,69.4,66.4,29.88,South,180,6.5,6.5,90,0.00,,---,0.00,VWS V14.00,2013-02-24 12:45:00,
2013-02-24 07:50:00,69.4,66.4,29.88,SE,135,4.7,4.7,90,0.00,,---,0.00,VWS V14.00,2013-02-24 12:50:00,
2013-02-24 07:55:00,69.4,66.4,29.88,SSE,158,3.6,3.8,90,0.00,,---,0.00,VWS V14.00,2013-02-24 12:55:00,
2013-02-24 08:00:00,69.4,66.4,29.91,South,180,2.9,2.9,90,0.00,,---,0.00,VWS V14.00,2013-02-24 13:00:00,
2013-02-24 08:05:00,69.4,66.4,29.91,SSE,158,4.0,4.0,90,0.00,,---,0.00,VWS V14.00,2013-02-24 13:05:00,
2013-02-24 08:10:00,69.6,66.6,29.91,SE,135,3.4,3.8,90,0.00,,---,0.00,VWS V14.00,2013-02-24 13:10:00,
2013-02-24 08:15:00,69.8,66.4,29.91,SSE,158,3.4,5.8,89,0.00,,---,0.00,VWS V14.00,2013-02-24 13:15:00,
2013-02-24 08:20:00,69.8,66.4,29.91,South,180,3.8,3.8,89,0.00,,---,0.00,VWS V14.00,2013-02-24 13:20:00,
2013-02-24 08:26:00,70.0,66.9,29.91,SE,135,3.1,3.6,90,0.00,,---,0.00,VWS V14.00,2013-02-24 13:26:00,
2013-02-24 08:31:00,70.0,66.9,29.91,South,180,2.2,4.3,90,0.00,,---,0.00,VWS V14.00,2013-02-24 13:31:00,
2013-02-24 08:36:00,70.2,67.1,29.91,SSE,158,4.9,4.9,90,0.00,,---,0.00,VWS V14.00,2013-02-24 13:36:00,
2013-02-24 08:42:00,70.3,67.3,29.91,ESE,112,6.3,6.3,90,0.00,,---,0.00,VWS V14.00,2013-02-24 13:42:00,
2013-02-24 08:48:00,70.5,67.4,29.91,SSE,158,5.4,7.4,90,0.00,,---,0.00,VWS V14.00,2013-02-24 13:48:00,
2013-02-24 08:53:00,70.5,67.4,29.91,SE,135,5.8,5.8,90,0.00,,---,0.00,VWS V14.00,2013-02-24 13:53:00,
2013-02-24 08:59:00,71.1,68.0,29.91,ESE,112,4.9,4.9,90,0.00,,---,0.00,VWS V14.00,2013-02-24 13:59:00,
2013-02-24 09:04:00,71.2,68.2,29.91,South,180,4.9,4.9,90,0.00,,---,0.00,VWS V14.00,2013-02-24 14:04:00,
2013-02-24 09:10:00,71.4,68.3,29.91,ESE,112,3.6,5.6,90,0.00,,---,0.00,VWS V14.00,2013-02-24 14:10:00,
2013-02-24 09:15:00,71.6,68.2,29.91,SE,135,6.5,6.5,89,0.00,,---,0.00,VWS V14.00,2013-02-24 14:15:00,
2013-02-24 09:21:00,72.0,68.6,29.91,SSE,158,5.8,5.8,89,0.00,,---,0.00,VWS V14.00,2013-02-24 14:21:00,
2013-02-24 09:26:00,72.1,68.7,29.91,South,180,7.6,7.6,89,0.00,,---,0.00,VWS V14.00,2013-02-24 14:26:00,
2013-02-24 09:31:00,72.1,68.7,29.91,SSE,158,5.6,5.6,89,0.00,,---,0.00,VWS V14.00,2013-02-24 14:31:00,
2013-02-24 09:36:00,72.3,68.9,29.91,SSE,158,3.6,5.6,89,0.00,,---,0.00,VWS V14.00,2013-02-24 14:36:00,
2013-02-24 09:41:00,72.5,69.1,29.91,SSE,158,4.9,7.4,89,0.00,,---,0.00,VWS V14.00,2013-02-24 14:41:00,
2013-02-24 09:46:00,72.7,69.3,29.91,SSE,158,3.4,5.4,89,0.00,,---,0.00,VWS V14.00,2013-02-24 14:46:00,
2013-02-24 09:51:00,72.9,69.4,29.91,SSE,158,6.3,6.3,89,0.00,,---,0.00,VWS V14.00,2013-02-24 14:51:00,
2013-02-24 09:56:00,73.2,69.5,29.91,SSE,158,3.4,4.3,88,0.00,,---,0.00,VWS V14.00,2013-02-24 14:56:00,
2013-02-24 10:01:00,73.2,69.5,29.91,SE,135,4.0,4.3,88,0.00,,---,0.00,VWS V14.00,2013-02-24 15:01:00,
2013-02-24 10:06:00,73.4,69.3,29.91,SSW,202,3.6,4.0,87,0.00,,---,0.00,VWS V14.00,2013-02-24 15:06:00,
2013-02-24 10:11:00,73.6,69.5,29.91,SSE,158,3.1,3.8,87,0.00,,---,0.00,VWS V14.00,2013-02-24 15:11:00,
2013-02-24 10:16:00,73.8,69.3,29.91,South,180,6.5,6.5,86,0.00,,---,0.00,VWS V14.00,2013-02-24 15:16:00,
2013-02-24 10:21:00,73.8,69.3,29.91,SSW,202,6.5,6.5,86,0.00,,---,0.00,VWS V14.00,2013-02-24 15:21:00,
2013-02-24 10:26:00,73.9,69.2,29.91,South,180,3.4,3.4,85,0.00,,---,0.00,VWS V14.00,2013-02-24 15:26:00,
2013-02-24 10:31:00,74.1,69.0,29.91,South,180,4.9,5.4,84,0.00,,---,0.00,VWS V14.00,2013-02-24 15:31:00,
2013-02-24 10:36:00,74.3,68.8,29.91,South,180,4.7,7.8,83,0.00,,---,0.00,VWS V14.00,2013-02-24 15:36:00,
2013-02-24 10:41:00,74.5,69.0,29.91,South,180,6.0,6.0,83,0.00,,---,0.00,VWS V14.00,2013-02-24 15:41:00,
2013-02-24 10:46:00,74.7,69.2,29.91,SE,135,5.8,5.8,83,0.00,,---,0.00,VWS V14.00,2013-02-24 15:46:00,
2013-02-24 10:51:00,74.8,69.3,29.91,SSE,158,6.5,6.5,83,0.00,,---,0.00,VWS V14.00,2013-02-24 15:51:00,
2013-02-24 10:56:00,74.8,69.0,29.91,SSW,202,3.4,6.3,82,0.00,,---,0.00,VWS V14.00,2013-02-24 15:56:00,
2013-02-24 11:01:00,75.0,68.8,29.91,SSW,202,5.8,7.4,81,0.00,,---,0.00,VWS V14.00,2013-02-24 16:01:00,
2013-02-24 11:06:00,75.0,68.4,29.91,South,180,3.8,4.0,80,0.00,,---,0.00,VWS V14.00,2013-02-24 16:06:00,
2013-02-24 11:11:00,74.8,68.3,29.91,SSE,158,3.8,3.8,80,0.00,,---,0.00,VWS V14.00,2013-02-24 16:11:00,
2013-02-24 11:16:00,74.8,67.9,29.91,SSE,158,4.3,4.3,79,0.00,,---,0.00,VWS V14.00,2013-02-24 16:16:00,
2013-02-24 11:21:00,75.0,68.4,29.91,SSW,202,4.9,8.5,80,0.00,,---,0.00,VWS V14.00,2013-02-24 16:21:00,
2013-02-24 11:26:00,75.2,68.2,29.91,South,180,3.4,5.8,79,0.00,,---,0.00,VWS V14.00,2013-02-24 16:26:00,
2013-02-24 11:31:00,75.6,68.6,29.91,WSW,248,3.1,5.8,79,0.00,,---,0.00,VWS V14.00,2013-02-24 16:31:00,
2013-02-24 11:36:00,75.7,68.8,29.91,SSW,202,3.4,5.4,79,0.00,,---,0.00,VWS V14.00,2013-02-24 16:36:00,
2013-02-24 11:41:00,76.1,69.1,29.91,South,180,5.6,5.6,79,0.00,,---,0.00,VWS V14.00,2013-02-24 16:41:00,
2013-02-24 11:46:00,76.5,69.1,29.91,SSW,202,3.4,4.0,78,0.00,,---,0.00,VWS V14.00,2013-02-24 16:46:00,
2013-02-24 11:51:00,76.8,68.7,29.91,SSW,202,4.3,4.3,76,0.00,,---,0.00,VWS V14.00,2013-02-24 16:51:00,
2013-02-24 11:56:00,77.2,69.0,29.91,WSW,248,2.9,5.8,76,0.00,,---,0.00,VWS V14.00,2013-02-24 16:56:00,
2013-02-24 12:01:00,77.4,68.8,29.91,SSW,202,3.4,3.4,75,0.00,,---,0.00,VWS V14.00,2013-02-24 17:01:00,
2013-02-24 12:06:00,77.4,68.8,29.91,SSW,202,3.1,3.4,75,0.00,,---,0.00,VWS V14.00,2013-02-24 17:06:00,
2013-02-24 12:11:00,77.7,69.6,29.91,SSW,202,3.6,3.6,76,0.00,,---,0.00,VWS V14.00,2013-02-24 17:11:00,
2013-02-24 12:16:00,78.1,69.5,29.91,South,180,4.3,4.3,75,0.00,,---,0.00,VWS V14.00,2013-02-24 17:16:00,
2013-02-24 12:21:00,77.9,68.6,29.91,SSW,202,5.6,5.6,73,0.00,,---,0.00,VWS V14.00,2013-02-24 17:21:00,
2013-02-24 12:26:00,77.9,68.6,29.91,South,180,6.5,6.5,73,0.00,,---,0.00,VWS V14.00,2013-02-24 17:26:00,
2013-02-24 12:31:00,77.9,68.6,29.91,South,180,5.6,7.4,73,0.00,,---,0.00,VWS V14.00,2013-02-24 17:31:00,
2013-02-24 12:36:00,78.1,68.7,29.91,South,180,6.0,6.0,73,0.00,,---,0.00,VWS V14.00,2013-02-24 17:36:00,
2013-02-24 12:41:00,78.3,69.3,29.91,SSW,202,3.1,3.4,74,0.00,,---,0.00,VWS V14.00,2013-02-24 17:41:00,
2013-02-24 12:46:00,78.1,68.3,29.91,SSE,158,3.8,5.4,72,0.00,,---,0.00,VWS V14.00,2013-02-24 17:46:00,
2013-02-24 12:51:00,78.1,68.7,29.91,SSE,158,5.8,5.8,73,0.00,,---,0.00,VWS V14.00,2013-02-24 17:51:00,
2013-02-24 12:57:00,78.1,68.3,29.91,SSE,158,2.7,2.7,72,0.00,,---,0.00,VWS V14.00,2013-02-24 17:57:00,
2013-02-24 13:02:00,77.9,68.2,29.91,South,180,2.7,5.4,72,0.00,,---,0.00,VWS V14.00,2013-02-24 18:02:00,
2013-02-24 13:08:00,77.5,67.8,29.91,SSE,158,4.3,4.9,72,0.00,,---,0.00,VWS V14.00,2013-02-24 18:08:00,
2013-02-24 13:13:00,77.4,68.0,29.91,South,180,4.9,4.9,73,0.00,,---,0.00,VWS V14.00,2013-02-24 18:13:00,
2013-02-24 13:18:00,77.4,68.0,29.91,South,180,5.6,5.6,73,0.00,,---,0.00,VWS V14.00,2013-02-24 18:18:00,
2013-02-24 13:23:00,77.4,68.0,29.91,SSW,202,2.5,5.6,73,0.00,,---,0.00,VWS V14.00,2013-02-24 18:23:00,
2013-02-24 13:29:00,77.4,68.0,29.88,South,180,2.5,4.7,73,0.00,,---,0.00,VWS V14.00,2013-02-24 18:29:00,
2013-02-24 13:34:00,77.4,68.4,29.88,SSE,158,6.3,6.3,74,0.00,,---,0.00,VWS V14.00,2013-02-24 18:34:00,
2013-02-24 13:39:00,77.4,68.0,29.88,South,180,3.8,4.3,73,0.00,,---,0.00,VWS V14.00,2013-02-24 18:39:00,
2013-02-24 13:44:00,77.2,67.9,29.88,South,180,4.3,4.3,73,0.00,,---,0.00,VWS V14.00,2013-02-24 18:44:00,
2013-02-24 13:49:00,77.2,67.9,29.88,SSE,158,2.5,4.0,73,0.00,,---,0.00,VWS V14.00,2013-02-24 18:49:00,
2013-02-24 13:54:00,77.2,67.5,29.88,SSE,158,2.0,3.1,72,0.00,,---,0.00,VWS V14.00,2013-02-24 18:54:00,
2013-02-24 13:59:00,77.2,67.9,29.88,SE,135,2.9,2.9,73,0.00,,---,0.00,VWS V14.00,2013-02-24 18:59:00,
2013-02-24 14:04:00,77.0,67.3,29.88,South,180,2.2,2.2,72,0.00,,---,0.00,VWS V14.00,2013-02-24 19:04:00,
2013-02-24 14:09:00,76.8,67.5,29.88,SSE,158,4.9,4.9,73,0.00,,---,0.00,VWS V14.00,2013-02-24 19:09:00,
2013-02-24 14:14:00,76.6,67.3,29.88,SSE,158,1.6,1.6,73,0.00,,---,0.00,VWS V14.00,2013-02-24 19:14:00,
2013-02-24 14:19:00,76.6,67.7,29.88,South,180,3.4,3.4,74,0.00,,---,0.00,VWS V14.00,2013-02-24 19:19:00,
2013-02-24 14:24:00,76.3,67.0,29.88,SSE,158,3.8,3.8,73,0.00,,---,0.00,VWS V14.00,2013-02-24 19:24:00,
2013-02-24 14:29:00,76.3,67.0,29.85,South,180,2.9,2.9,73,0.00,,---,0.00,VWS V14.00,2013-02-24 19:29:00,
2013-02-24 14:34:00,76.1,67.2,29.85,SSE,158,6.0,6.0,74,0.00,,---,0.00,VWS V14.00,2013-02-24 19:34:00,
2013-02-24 14:39:00,75.9,67.0,29.85,SSW,202,3.6,4.0,74,0.00,,---,0.00,VWS V14.00,2013-02-24 19:39:00,
2013-02-24 14:44:00,76.1,67.6,29.85,SSW,202,4.7,4.7,75,0.00,,---,0.00,VWS V14.00,2013-02-24 19:44:00,
2013-02-24 14:49:00,75.9,67.4,29.85,SSE,158,2.5,5.4,75,0.00,,---,0.00,VWS V14.00,2013-02-24 19:49:00,
2013-02-24 14:54:00,75.7,67.3,29.85,SW,225,2.7,4.0,75,0.00,,---,0.00,VWS V14.00,2013-02-24 19:54:00,
2013-02-24 14:59:00,75.6,67.1,29.88,SW,225,1.6,2.5,75,0.00,,---,0.00,VWS V14.00,2013-02-24 19:59:00,
2013-02-24 15:04:00,75.4,67.3,29.88,ESE,112,2.7,2.7,76,0.00,,---,0.00,VWS V14.00,2013-02-24 20:04:00,
2013-02-24 15:10:00,75.4,67.3,29.85,SE,135,2.7,3.1,76,0.00,,---,0.00,VWS V14.00,2013-02-24 20:10:00,
2013-02-24 15:15:00,75.4,67.3,29.85,South,180,3.8,3.8,76,0.00,,---,0.00,VWS V14.00,2013-02-24 20:15:00,
2013-02-24 15:20:00,75.2,67.1,29.85,SE,135,3.1,4.3,76,0.00,,---,0.00,VWS V14.00,2013-02-24 20:20:00,
2013-02-24 15:25:00,75.0,67.3,29.85,SSE,158,1.6,3.4,77,0.00,,---,0.00,VWS V14.00,2013-02-24 20:25:00,
2013-02-24 15:30:00,75.0,67.3,29.85,SSW,202,3.4,3.4,77,0.00,,---,0.00,VWS V14.00,2013-02-24 20:30:00,
2013-02-24 15:35:00,74.7,66.6,29.85,SSW,202,2.0,2.7,76,0.00,,---,0.00,VWS V14.00,2013-02-24 20:35:00,
2013-02-24 15:40:00,74.7,67.0,29.85,SSE,158,3.4,3.4,77,0.00,,---,0.00,VWS V14.00,2013-02-24 20:40:00,
2013-02-24 15:45:00,74.5,66.8,29.85,SSE,158,3.6,3.6,77,0.00,,---,0.00,VWS V14.00,2013-02-24 20:45:00,
2013-02-24 15:50:00,74.3,66.6,29.85,South,180,3.4,3.4,77,0.00,,---,0.00,VWS V14.00,2013-02-24 20:50:00,
2013-02-24 15:55:00,74.3,66.6,29.85,East,90,2.0,2.0,77,0.00,,---,0.00,VWS V14.00,2013-02-24 20:55:00,
2013-02-24 16:00:00,74.3,66.6,29.85,South,180,2.7,2.7,77,0.00,,---,0.00,VWS V14.00,2013-02-24 21:00:00,
2013-02-24 16:05:00,74.1,66.5,29.85,SSE,158,2.2,2.2,77,0.00,,---,0.00,VWS V14.00,2013-02-24 21:05:00,
2013-02-24 16:10:00,73.9,66.3,29.85,SSE,158,2.9,4.3,77,0.00,,---,0.00,VWS V14.00,2013-02-24 21:10:00,
2013-02-24 16:15:00,73.8,66.1,29.85,ESE,112,3.6,5.8,77,0.00,,---,0.00,VWS V14.00,2013-02-24 21:15:00,
2013-02-24 16:20:00,73.8,66.1,29.85,East,90,3.6,3.6,77,0.00,,---,0.00,VWS V14.00,2013-02-24 21:20:00,
2013-02-24 16:25:00,73.8,66.1,29.85,ESE,112,4.5,5.6,77,0.00,,---,0.00,VWS V14.00,2013-02-24 21:25:00,
2013-02-24 16:30:00,73.8,66.1,29.85,SE,135,4.0,4.0,77,0.00,,---,0.00,VWS V14.00,2013-02-24 21:30:00,
2013-02-24 16:35:00,73.8,66.5,29.85,South,180,2.9,2.9,78,0.00,,---,0.00,VWS V14.00,2013-02-24 21:35:00,
2013-02-24 16:40:00,73.6,66.3,29.85,SSE,158,3.4,5.4,78,0.00,,---,0.00,VWS V14.00,2013-02-24 21:40:00,
2013-02-24 16:45:00,73.6,66.3,29.85,SSE,158,3.4,3.4,78,0.00,,---,0.00,VWS V14.00,2013-02-24 21:45:00,
2013-02-24 16:50:00,73.6,66.3,29.85,SSE,158,3.4,3.4,78,0.00,,---,0.00,VWS V14.00,2013-02-24 21:50:00,
2013-02-24 16:55:00,73.6,66.3,29.85,SE,135,4.3,4.3,78,0.00,,---,0.00,VWS V14.00,2013-02-24 21:55:00,
2013-02-24 17:00:00,73.4,66.1,29.85,South,180,3.4,5.6,78,0.00,,---,0.00,VWS V14.00,2013-02-24 22:00:00,
2013-02-24 17:05:00,73.4,66.5,29.85,South,180,4.0,4.0,79,0.00,,---,0.00,VWS V14.00,2013-02-24 22:05:00,
2013-02-24 17:10:00,73.2,66.3,29.85,SE,135,2.7,3.1,79,0.00,,---,0.00,VWS V14.00,2013-02-24 22:10:00,
2013-02-24 17:15:00,73.2,66.3,29.85,South,180,3.8,3.8,79,0.00,,---,0.00,VWS V14.00,2013-02-24 22:15:00,
2013-02-24 17:20:00,73.2,66.3,29.85,ESE,112,2.9,2.9,79,0.00,,---,0.00,VWS V14.00,2013-02-24 22:20:00,
2013-02-24 17:25:00,73.2,66.3,29.82,ESE,112,2.2,3.4,79,0.00,,---,0.00,VWS V14.00,2013-02-24 22:25:00,
2013-02-24 17:30:00,73.2,66.3,29.82,SE,135,1.3,2.5,79,0.00,,---,0.00,VWS V14.00,2013-02-24 22:30:00,
2013-02-24 17:35:00,73.4,66.5,29.82,SE,135,3.6,3.8,79,0.00,,---,0.00,VWS V14.00,2013-02-24 22:35:00,
2013-02-24 17:40:00,73.4,66.5,29.85,SSE,158,3.6,4.9,79,0.00,,---,0.00,VWS V14.00,2013-02-24 22:40:00,
2013-02-24 17:45:00,73.4,66.5,29.85,SE,135,6.3,6.3,79,0.00,,---,0.00,VWS V14.00,2013-02-24 22:45:00,
2013-02-24 17:50:00,73.4,66.5,29.85,South,180,5.8,5.8,79,0.00,,---,0.00,VWS V14.00,2013-02-24 22:50:00,
2013-02-24 17:55:00,73.4,66.5,29.85,SSE,158,4.0,5.8,79,0.00,,---,0.00,VWS V14.00,2013-02-24 22:55:00,
2013-02-24 18:00:00,73.4,66.5,29.85,SSE,158,3.8,3.8,79,0.00,,---,0.00,VWS V14.00,2013-02-24 23:00:00,
2013-02-24 18:05:00,73.4,66.5,29.85,SSE,158,3.6,3.6,79,0.00,,---,0.00,VWS V14.00,2013-02-24 23:05:00,
2013-02-24 18:10:00,73.2,66.7,29.85,SE,135,3.8,4.7,80,0.00,,---,0.00,VWS V14.00,2013-02-24 23:10:00,
2013-02-24 18:15:00,73.0,66.5,29.85,SSE,158,2.9,5.6,80,0.00,,---,0.00,VWS V14.00,2013-02-24 23:15:00,
2013-02-24 18:20:00,73.0,66.5,29.85,ESE,112,4.0,4.0,80,0.00,,---,0.00,VWS V14.00,2013-02-24 23:20:00,
2013-02-24 18:25:00,73.0,66.5,29.85,SSE,158,4.9,5.4,80,0.00,,---,0.00,VWS V14.00,2013-02-24 23:25:00,
2013-02-24 18:30:00,72.9,66.3,29.85,SE,135,5.4,5.4,80,0.00,,---,0.00,VWS V14.00,2013-02-24 23:30:00,
2013-02-24 18:35:00,72.9,66.0,29.85,South,180,0.0,0.0,79,0.00,,---,0.00,VWS V14.00,2013-02-24 23:35:00,
2013-02-24 18:40:00,72.7,66.2,29.85,SE,135,0.0,0.0,80,0.00,,---,0.00,VWS V14.00,2013-02-24 23:40:00,
2013-02-24 18:45:00,72.7,65.8,29.85,East,90,0.0,0.0,79,0.00,,---,0.00,VWS V14.00,2013-02-24 23:45:00,
2013-02-24 18:50:00,72.7,65.8,29.85,ENE,68,0.0,2.7,79,0.00,,---,0.00,VWS V14.00,2013-02-24 23:50:00,
2013-02-24 18:55:00,72.5,65.6,29.85,ENE,68,2.5,2.5,79,0.00,,---,0.00,VWS V14.00,2013-02-24 23:55:00,
2013-02-24 19:00:00,72.5,65.6,29.85,East,90,0.0,1.1,79,0.00,,---,0.00,VWS V14.00,2013-02-25 00:00:00,
2013-02-24 19:05:00,72.3,65.4,29.85,ENE,68,1.3,1.3,79,0.00,,---,0.00,VWS V14.00,2013-02-25 00:05:00,
2013-02-24 19:10:00,72.3,65.8,29.85,East,90,0.0,0.0,80,0.00,,---,0.00,VWS V14.00,2013-02-25 00:10:00,
2013-02-24 19:15:00,72.1,65.6,29.85,South,180,0.0,0.0,80,0.00,,---,0.00,VWS V14.00,2013-02-25 00:15:00,
2013-02-24 19:20:00,72.1,65.6,29.85,SE,135,0.0,0.9,80,0.00,,---,0.00,VWS V14.00,2013-02-25 00:20:00,
2013-02-24 19:25:00,72.1,65.6,29.88,East,90,0.0,2.2,80,0.00,,---,0.00,VWS V14.00,2013-02-25 00:25:00,
2013-02-24 19:30:00,72.1,65.6,29.88,ENE,68,0.0,1.1,80,0.00,,---,0.00,VWS V14.00,2013-02-25 00:30:00,
2013-02-24 19:35:00,72.0,65.5,29.88,ENE,68,0.0,0.0,80,0.00,,---,0.00,VWS V14.00,2013-02-25 00:35:00,
2013-02-24 19:40:00,72.0,65.5,29.85,East,90,0.0,0.9,80,0.00,,---,0.00,VWS V14.00,2013-02-25 00:40:00,
2013-02-24 19:45:00,72.0,65.5,29.85,East,90,0.0,0.0,80,0.00,,---,0.00,VWS V14.00,2013-02-25 00:45:00,
2013-02-24 19:50:00,72.0,65.5,29.85,SSE,158,0.0,0.0,80,0.00,,---,0.00,VWS V14.00,2013-02-25 00:50:00,
2013-02-24 19:55:00,72.0,65.5,29.88,SE,135,0.0,0.0,80,0.00,,---,0.00,VWS V14.00,2013-02-25 00:55:00,
2013-02-24 20:00:00,72.0,65.5,29.88,East,90,0.0,0.0,80,0.00,,---,0.00,VWS V14.00,2013-02-25 01:00:00,
2013-02-24 20:05:00,72.0,65.5,29.88,East,90,0.0,0.0,80,0.00,,---,0.00,VWS V14.00,2013-02-25 01:05:00,
2013-02-24 20:10:00,72.0,65.5,29.88,ENE,68,0.0,0.0,80,0.00,,---,0.00,VWS V14.00,2013-02-25 01:10:00,
2013-02-24 20:15:00,72.0,65.5,29.88,ESE,112,0.0,0.0,80,0.00,,---,0.00,VWS V14.00,2013-02-25 01:15:00,
2013-02-24 20:20:00,72.0,65.5,29.88,ENE,68,0.0,0.0,80,0.00,,---,0.00,VWS V14.00,2013-02-25 01:20:00,
2013-02-24 20:25:00,72.0,66.2,29.88,East,90,0.0,0.9,82,0.00,,---,0.00,VWS V14.00,2013-02-25 01:25:00,
2013-02-24 20:30:00,72.0,65.8,29.88,East,90,0.0,1.1,81,0.00,,---,0.00,VWS V14.00,2013-02-25 01:30:00,
2013-02-24 20:35:00,72.0,65.8,29.88,East,90,0.0,0.0,81,0.00,,---,0.00,VWS V14.00,2013-02-25 01:35:00,
2013-02-24 20:40:00,72.1,66.0,29.85,East,90,0.0,0.0,81,0.00,,---,0.00,VWS V14.00,2013-02-25 01:40:00,
2013-02-24 20:45:00,72.0,65.8,29.85,East,90,0.0,1.1,81,0.00,,---,0.00,VWS V14.00,2013-02-25 01:45:00,
2013-02-24 20:50:00,72.0,65.8,29.85,ENE,68,0.0,0.0,81,0.00,,---,0.00,VWS V14.00,2013-02-25 01:50:00,
2013-02-24 20:55:00,72.0,65.8,29.88,East,90,0.0,0.0,81,0.00,,---,0.00,VWS V14.00,2013-02-25 01:55:00,
2013-02-24 21:01:00,72.0,66.2,29.88,ENE,68,0.0,0.9,82,0.00,,---,0.00,VWS V14.00,2013-02-25 02:01:00,
2013-02-24 21:06:00,72.0,66.2,29.88,East,90,0.0,0.0,82,0.00,,---,0.00,VWS V14.00,2013-02-25 02:06:00,
2013-02-24 21:12:00,72.0,66.2,29.85,East,90,0.0,0.0,82,0.00,,---,0.00,VWS V14.00,2013-02-25 02:12:00,
2013-02-24 21:17:00,71.8,65.6,29.85,ENE,68,0.0,0.0,81,0.00,,---,0.00,VWS V14.00,2013-02-25 02:17:00,
2013-02-24 21:23:00,71.8,65.6,29.85,East,90,0.0,0.0,81,0.00,,---,0.00,VWS V14.00,2013-02-25 02:23:00,
2013-02-24 21:28:00,71.8,66.0,29.88,ENE,68,0.0,0.0,82,0.00,,---,0.00,VWS V14.00,2013-02-25 02:28:00,
2013-02-24 21:33:00,71.8,66.0,29.88,ENE,68,0.0,0.0,82,0.00,,---,0.00,VWS V14.00,2013-02-25 02:33:00,
2013-02-24 21:39:00,71.8,66.0,29.88,East,90,0.0,0.0,82,0.00,,---,0.00,VWS V14.00,2013-02-25 02:39:00,
2013-02-24 21:45:00,71.8,66.0,29.85,ENE,68,0.0,0.0,82,0.00,,---,0.00,VWS V14.00,2013-02-25 02:45:00,
2013-02-24 21:50:00,71.8,66.0,29.85,East,90,1.1,1.1,82,0.00,,---,0.00,VWS V14.00,2013-02-25 02:50:00,
2013-02-24 21:56:00,71.8,66.0,29.85,East,90,2.0,2.0,82,0.00,,---,0.00,VWS V14.00,2013-02-25 02:56:00,
2013-02-24 22:02:00,72.0,66.2,29.85,ENE,68,2.7,2.7,82,0.00,,---,0.00,VWS V14.00,2013-02-25 03:02:00,
2013-02-24 22:08:00,72.0,66.2,29.85,ENE,68,1.1,1.1,82,0.00,,---,0.00,VWS V14.00,2013-02-25 03:08:00,
2013-02-24 22:13:00,72.0,66.2,29.85,East,90,1.3,1.3,82,0.00,,---,0.00,VWS V14.00,2013-02-25 03:13:00,
2013-02-24 22:18:00,72.0,66.5,29.85,East,90,0.0,0.0,83,0.00,,---,0.00,VWS V14.00,2013-02-25 03:18:00,
2013-02-24 22:25:00,72.0,66.2,29.85,ESE,112,0.0,1.3,82,0.00,,---,0.00,VWS V14.00,2013-02-25 03:25:00,
2013-02-24 22:30:00,72.0,66.9,29.85,East,90,0.0,0.0,84,0.00,,---,0.00,VWS V14.00,2013-02-25 03:30:00,
2013-02-24 22:36:00,72.0,66.9,29.85,ENE,68,0.0,0.0,84,0.00,,---,0.00,VWS V14.00,2013-02-25 03:36:00,
2013-02-24 22:41:00,71.8,66.3,29.85,East,90,0.0,0.0,83,0.00,,---,0.00,VWS V14.00,2013-02-25 03:41:00,
2013-02-24 22:46:00,71.8,66.3,29.85,ESE,112,1.1,1.1,83,0.00,,---,0.00,VWS V14.00,2013-02-25 03:46:00,
2013-02-24 22:52:00,71.8,66.7,29.85,ENE,68,1.6,2.0,84,0.00,,---,0.00,VWS V14.00,2013-02-25 03:52:00,
2013-02-24 22:59:00,71.8,66.7,29.85,ENE,68,1.3,1.3,84,0.00,,---,0.00,VWS V14.00,2013-02-25 03:59:00,
2013-02-24 23:04:00,71.8,66.7,29.85,East,90,0.0,0.0,84,0.00,,---,0.00,VWS V14.00,2013-02-25 04:04:00,
2013-02-24 23:10:00,71.8,66.7,29.85,ENE,68,0.0,2.0,84,0.00,,---,0.00,VWS V14.00,2013-02-25 04:10:00,
2013-02-24 23:15:00,71.8,66.7,29.85,East,90,0.0,0.0,84,0.00,,---,0.00,VWS V14.00,2013-02-25 04:15:00,
2013-02-24 23:21:00,71.8,66.7,29.85,ENE,68,0.0,0.0,84,0.00,,---,0.00,VWS V14.00,2013-02-25 04:21:00,
2013-02-24 23:26:00,71.6,66.5,29.85,ENE,68,0.0,0.0,84,0.00,,---,0.00,VWS V14.00,2013-02-25 04:26:00,
2013-02-24 23:32:00,71.8,66.7,29.85,East,90,0.0,0.0,84,0.00,,---,0.00,VWS V14.00,2013-02-25 04:32:00,
2013-02-24 23:38:00,71.6,66.5,29.85,East,90,0.0,1.1,84,0.00,,---,0.00,VWS V14.00,2013-02-25 04:38:00,
2013-02-24 23:43:00,71.8,66.7,29.85,ESE,112,2.7,3.1,84,0.00,,---,0.00,VWS V14.00,2013-02-25 04:43:00,
2013-02-24 23:49:00,71.8,66.7,29.85,East,90,0.0,0.9,84,0.00,,---,0.00,VWS V14.00,2013-02-25 04:49:00,
2013-02-24 23:54:00,71.8,66.3,29.85,East,90,0.0,0.0,83,0.00,,---,0.00,VWS V14.00,2013-02-25 04:54:00,